createdAt,value
2023-04-02T00:00:09.799Z,96141.72
2023-04-02T00:02:58.877Z,96140.53
2023-04-02T00:05:32.016Z,96139.50
2023-04-02T00:08:03.436Z,96142.88
2023-04-02T00:10:46.980Z,96139.06
2023-04-02T00:13:13.940Z,96139.88
2023-04-02T00:15:42.636Z,96141.91
2023-04-02T00:18:11.661Z,96147.72
2023-04-02T00:20:40.937Z,96146.00
2023-04-02T00:23:09.960Z,96148.88
2023-04-02T00:25:43.162Z,96149.28
2023-04-02T00:28:21.589Z,96157.34
2023-04-02T00:30:50.497Z,96148.53
2023-04-02T00:33:19.392Z,96154.44
2023-04-02T00:35:46.690Z,96156.91
2023-04-02T00:38:26.372Z,96163.88
2023-04-02T00:40:55.619Z,96158.69
2023-04-02T00:43:24.982Z,96157.31
2023-04-02T00:45:55.389Z,96159.09
2023-04-02T00:48:33.941Z,96159.59
2023-04-02T00:51:09.986Z,96154.19
2023-04-02T00:53:37.034Z,96154.84
2023-04-02T00:56:04.129Z,96152.56
2023-04-02T00:58:32.926Z,96161.41
2023-04-02T01:01:00.326Z,96163.91
2023-04-02T01:03:35.351Z,96170.75
2023-04-02T01:06:05.376Z,96165.13
2023-04-02T01:08:44.574Z,96174.06
2023-04-02T01:11:42.493Z,96172.38
2023-04-02T01:14:37.166Z,96178.41
2023-04-02T01:17:43.033Z,96179.84
2023-04-02T01:20:39.269Z,96180.31
2023-04-02T01:23:14.476Z,96187.22
2023-04-02T01:26:03.609Z,96186.38
2023-04-02T01:28:49.016Z,96185.88
2023-04-02T01:31:16.683Z,96182.94
2023-04-02T01:33:43.865Z,96183.47
2023-04-02T01:36:32.266Z,96185.03
2023-04-02T01:39:31.545Z,96186.47
2023-04-02T01:42:18.870Z,96185.03
2023-04-02T01:44:53.833Z,96189.53
2023-04-02T01:47:25.717Z,96188.03
2023-04-02T01:50:19.347Z,96188.66
2023-04-02T01:52:48.779Z,96186.47
2023-04-02T01:55:19.676Z,96195.19
2023-04-02T01:57:49.526Z,96195.13
2023-04-02T02:00:17.108Z,96201.50
2023-04-02T02:02:49.179Z,96202.78
2023-04-02T02:05:18.318Z,96200.13
2023-04-02T02:07:47.325Z,96209.44
2023-04-02T02:10:26.973Z,96211.13
2023-04-02T02:12:54.218Z,96206.13
2023-04-02T02:15:23.003Z,96208.16
2023-04-02T02:17:50.422Z,96217.28
2023-04-02T02:20:17.757Z,96217.00
2023-04-02T02:22:48.809Z,96212.31
2023-04-02T02:25:18.570Z,96213.25
2023-04-02T02:27:48.810Z,96221.41
2023-04-02T02:30:16.597Z,96215.88
2023-04-02T02:32:52.656Z,96216.53
2023-04-02T02:35:25.980Z,96219.59
2023-04-02T02:38:02.576Z,96225.84
2023-04-02T02:40:34.497Z,96226.16
2023-04-02T02:43:02.869Z,96228.28
2023-04-02T02:45:34.140Z,96231.66
2023-04-02T02:48:02.742Z,96235.75
2023-04-02T02:50:31.782Z,96232.59
2023-04-02T02:53:04.708Z,96234.16
2023-04-02T02:55:39.552Z,96232.31
2023-04-02T02:58:28.261Z,96240.53
2023-04-02T03:01:06.781Z,96241.38
2023-04-02T03:03:36.432Z,96251.16
2023-04-02T03:06:07.570Z,96252.97
2023-04-02T03:08:44.178Z,96254.31
2023-04-02T03:11:26.630Z,96252.63
2023-04-02T03:13:55.247Z,96251.53
2023-04-02T03:16:36.228Z,96253.91
2023-04-02T03:19:24.896Z,96256.66
2023-04-02T03:21:56.064Z,96260.25
2023-04-02T03:24:29.808Z,96266.22
2023-04-02T03:27:03.821Z,96269.38
2023-04-02T03:29:32.300Z,96275.19
2023-04-02T03:32:12.489Z,96278.16
2023-04-02T03:35:27.656Z,96283.19
2023-04-02T03:38:01.024Z,96279.22
2023-04-02T03:40:37.570Z,96278.56
2023-04-02T03:43:27.534Z,96283.72
2023-04-02T03:45:59.592Z,96285.06
2023-04-02T03:48:31.091Z,96281.31
2023-04-02T03:51:14.887Z,96292.97
2023-04-02T03:53:42.148Z,96286.72
2023-04-02T03:56:09.571Z,96293.75
2023-04-02T03:58:47.695Z,96296.88
2023-04-02T04:01:20.847Z,96298.59
2023-04-02T04:03:52.475Z,96296.50
2023-04-02T04:06:28.905Z,96305.41
2023-04-02T04:09:21.566Z,96307.34
2023-04-02T04:11:49.948Z,96308.91
2023-04-02T04:14:21.521Z,96309.72
2023-04-02T04:17:38.566Z,96327.94
2023-04-02T04:20:24.490Z,96327.50
2023-04-02T04:22:56.210Z,96328.38
2023-04-02T04:25:33.944Z,96327.78
2023-04-02T04:28:13.743Z,96337.94
2023-04-02T04:31:07.476Z,96336.84
2023-04-02T04:33:41.508Z,96342.69
2023-04-02T04:36:37.942Z,96338.53
2023-04-02T04:39:18.145Z,96348.72
2023-04-02T04:41:48.707Z,96353.13
2023-04-02T04:44:18.220Z,96346.81
2023-04-02T04:47:10.969Z,96361.66
2023-04-02T04:49:47.070Z,96354.47
2023-04-02T04:52:27.051Z,96355.28
2023-04-02T04:54:54.523Z,96363.97
2023-04-02T04:57:36.084Z,96362.69
2023-04-02T05:00:54.521Z,96365.09
2023-04-02T05:03:35.936Z,96365.53
2023-04-02T05:06:36.089Z,96366.53
2023-04-02T05:09:38.634Z,96372.47
2023-04-02T05:12:30.368Z,96367.41
2023-04-02T05:15:06.831Z,96368.34
2023-04-02T05:17:42.975Z,96373.09
2023-04-02T05:20:26.065Z,96384.00
2023-04-02T05:23:16.443Z,96379.22
2023-04-02T05:26:03.104Z,96383.31
2023-04-02T05:28:46.126Z,96391.81
2023-04-02T05:31:22.770Z,96397.19
2023-04-02T05:33:50.173Z,96395.78
2023-04-02T05:36:28.077Z,96405.03
2023-04-02T05:38:58.132Z,96399.28
2023-04-02T05:41:48.071Z,96408.38
2023-04-02T05:44:32.138Z,96407.91
2023-04-02T05:47:02.416Z,96408.59
2023-04-02T05:49:39.469Z,96418.50
2023-04-02T05:52:13.163Z,96415.22
2023-04-02T05:54:44.681Z,96418.66
2023-04-02T05:57:15.210Z,96427.13
2023-04-02T06:00:13.871Z,96419.72
2023-04-02T06:02:55.923Z,96429.84
2023-04-02T06:05:25.244Z,96434.03
2023-04-02T06:08:07.364Z,96435.75
2023-04-02T06:10:36.313Z,96438.84
2023-04-02T06:13:07.258Z,96436.69
2023-04-02T06:15:38.807Z,96446.84
2023-04-02T06:18:24.783Z,96446.63
2023-04-02T06:20:52.922Z,96444.66
2023-04-02T06:23:23.367Z,96447.88
2023-04-02T06:25:54.483Z,96448.44
2023-04-02T06:28:47.152Z,96456.91
2023-04-02T06:31:28.986Z,96457.28
2023-04-02T06:33:56.697Z,96460.81
2023-04-02T06:36:26.660Z,96465.72
2023-04-02T06:38:55.861Z,96471.53
2023-04-02T06:41:23.903Z,96469.69
2023-04-02T06:44:28.319Z,96473.88
2023-04-02T06:47:30.197Z,96488.22
2023-04-02T06:50:15.325Z,96492.09
2023-04-02T06:52:50.842Z,96498.22
2023-04-02T06:55:46.402Z,96494.03
2023-04-02T06:58:17.842Z,96501.78
2023-04-02T07:00:49.001Z,96512.97
2023-04-02T07:03:25.280Z,96505.78
2023-04-02T07:05:54.260Z,96514.22
2023-04-02T07:08:21.731Z,96509.34
2023-04-02T07:10:49.634Z,96511.16
2023-04-02T07:13:23.099Z,96513.97
2023-04-02T07:15:52.477Z,96515.56
2023-04-02T07:18:27.802Z,96519.19
2023-04-02T07:20:55.682Z,96524.06
2023-04-02T07:23:23.659Z,96521.69
2023-04-02T07:25:51.676Z,96520.91
2023-04-02T07:28:20.375Z,96519.59
2023-04-02T07:30:49.587Z,96529.00
2023-04-02T07:33:17.659Z,96529.97
2023-04-02T07:35:44.973Z,96524.88
2023-04-02T07:38:12.302Z,96538.28
2023-04-02T07:40:39.501Z,96535.63
2023-04-02T07:43:06.692Z,96546.00
2023-04-02T07:45:34.103Z,96544.63
2023-04-02T07:48:27.510Z,96548.81
2023-04-02T07:50:54.688Z,96555.72
2023-04-02T07:53:40.178Z,96560.34
2023-04-02T07:56:07.811Z,96568.63
2023-04-02T07:58:36.231Z,96564.63
2023-04-02T08:01:07.214Z,96570.72
2023-04-02T08:03:34.913Z,96570.47
2023-04-02T08:06:03.487Z,96572.53
2023-04-02T08:08:30.703Z,96575.25
2023-04-02T08:10:57.805Z,96579.22
2023-04-02T08:13:25.191Z,96581.22
2023-04-02T08:15:52.234Z,96588.25
2023-04-02T08:18:23.084Z,96589.78
2023-04-02T08:20:50.492Z,96593.91
2023-04-02T08:23:18.259Z,96599.34
2023-04-02T08:25:46.669Z,96599.28
2023-04-02T08:28:13.732Z,96605.47
2023-04-02T08:30:41.167Z,96604.72
2023-04-02T08:33:08.302Z,96609.31
2023-04-02T08:35:35.767Z,96613.69
2023-04-02T08:38:03.406Z,96614.78
2023-04-02T08:40:36.228Z,96615.00
2023-04-02T08:43:34.561Z,96619.91
2023-04-02T08:46:14.810Z,96619.16
2023-04-02T08:48:44.400Z,96626.41
2023-04-02T08:51:35.562Z,96630.81
2023-04-02T08:54:28.033Z,96626.03
2023-04-02T08:57:16.563Z,96628.63
2023-04-02T08:59:43.778Z,96632.94
2023-04-02T09:02:28.517Z,96635.41
2023-04-02T09:05:01.025Z,96637.53
2023-04-02T09:07:37.753Z,96638.16
2023-04-02T09:10:05.091Z,96637.25
2023-04-02T09:12:32.641Z,96646.28
2023-04-02T09:15:04.092Z,96645.69
2023-04-02T09:17:36.874Z,96656.84
2023-04-02T09:20:18.864Z,96655.19
2023-04-02T09:22:47.102Z,96660.31
2023-04-02T09:25:17.854Z,96663.97
2023-04-02T09:27:47.800Z,96658.34
2023-04-02T09:30:22.611Z,96667.00
2023-04-02T09:32:54.032Z,96678.75
2023-04-02T09:35:36.404Z,96675.28
2023-04-02T09:38:10.083Z,96678.47
2023-04-02T09:40:50.745Z,96682.50
2023-04-02T09:43:22.606Z,96681.94
2023-04-02T09:46:06.888Z,96685.66
2023-04-02T09:48:39.546Z,96685.66
2023-04-02T09:51:07.595Z,96688.84
2023-04-02T09:53:37.096Z,96686.69
2023-04-02T09:56:17.093Z,96692.28
2023-04-02T09:58:45.666Z,96692.53
2023-04-02T10:01:29.358Z,96690.06
2023-04-02T10:03:57.045Z,96699.69
2023-04-02T10:06:24.233Z,96703.94
2023-04-02T10:08:51.844Z,96704.53
2023-04-02T10:11:43.708Z,96701.94
2023-04-02T10:14:39.318Z,96705.72
2023-04-02T10:17:25.641Z,96707.75
2023-04-02T10:19:55.550Z,96711.00
2023-04-02T10:22:22.971Z,96708.97
2023-04-02T10:24:51.433Z,96719.84
2023-04-02T10:27:30.652Z,96717.31
2023-04-02T10:30:13.092Z,96719.00
2023-04-02T10:32:51.489Z,96720.28
2023-04-02T10:35:57.173Z,96719.91
2023-04-02T10:38:39.406Z,96726.84
2023-04-02T10:41:09.116Z,96722.56
2023-04-02T10:44:06.175Z,96721.19
2023-04-02T10:46:56.070Z,96730.09
2023-04-02T10:49:41.355Z,96730.59
2023-04-02T10:52:21.369Z,96731.75
2023-04-02T10:54:59.259Z,96738.59
2023-04-02T10:57:37.337Z,96732.72
2023-04-02T11:00:16.670Z,96735.97
2023-04-02T11:03:08.607Z,96742.75
2023-04-02T11:05:44.449Z,96746.56
2023-04-02T11:08:34.387Z,96742.06
2023-04-02T11:11:13.640Z,96751.16
2023-04-02T11:14:09.013Z,96746.81
2023-04-02T11:16:40.102Z,96747.56
2023-04-02T11:19:15.963Z,96749.91
2023-04-02T11:21:57.296Z,96749.41
2023-04-02T11:24:34.484Z,96753.81
2023-04-02T11:27:10.919Z,96750.91
2023-04-02T11:29:45.458Z,96748.22
2023-04-02T11:32:12.481Z,96752.75
2023-04-02T11:34:43.200Z,96752.69
2023-04-02T11:37:35.050Z,96758.13
2023-04-02T11:40:06.653Z,96760.78
2023-04-02T11:42:34.546Z,96760.75
2023-04-02T11:45:23.400Z,96762.16
2023-04-02T11:48:17.175Z,96761.16
2023-04-02T11:50:45.788Z,96761.28
2023-04-02T11:53:13.617Z,96763.06
2023-04-02T11:55:44.320Z,96763.09
2023-04-02T11:58:29.715Z,96757.78
2023-04-02T12:01:05.641Z,96766.44
2023-04-02T12:03:38.583Z,96767.63
2023-04-02T12:06:07.862Z,96767.59
2023-04-02T12:08:57.142Z,96767.78
2023-04-02T12:11:32.860Z,96769.78
2023-04-02T12:14:00.152Z,96771.56
2023-04-02T12:16:31.578Z,96767.38
2023-04-02T12:18:58.670Z,96765.38
2023-04-02T12:21:28.140Z,96768.41
2023-04-02T12:23:59.666Z,96775.13
2023-04-02T12:26:32.171Z,96780.00
2023-04-02T12:29:28.209Z,96807.50
2023-04-02T12:31:56.933Z,96809.50
2023-04-02T12:34:25.708Z,96813.66
2023-04-02T12:37:01.315Z,96813.06
2023-04-02T12:39:28.900Z,96816.09
2023-04-02T12:41:56.488Z,96822.81
2023-04-02T12:44:25.896Z,96818.59
2023-04-02T12:46:52.988Z,96823.47
2023-04-02T12:49:38.989Z,96831.53
2023-04-02T12:52:10.917Z,96828.72
2023-04-02T12:55:00.450Z,96834.38
2023-04-02T12:57:27.715Z,96831.81
2023-04-02T13:00:06.526Z,96842.13
2023-04-02T13:02:44.859Z,96843.31
2023-04-02T13:05:12.052Z,96838.72
2023-04-02T13:07:39.147Z,96845.78
2023-04-02T13:10:23.206Z,96844.81
2023-04-02T13:12:55.323Z,96845.44
2023-04-02T13:15:33.174Z,96845.78
2023-04-02T13:18:28.244Z,96846.31
2023-04-02T13:21:03.242Z,96850.72
2023-04-02T13:23:30.383Z,96848.56
2023-04-02T13:25:58.870Z,96852.91
2023-04-02T13:28:26.300Z,96852.97
2023-04-02T13:30:55.414Z,96850.59
2023-04-02T13:33:22.559Z,96853.03
2023-04-02T13:35:49.672Z,96849.50
2023-04-02T13:38:16.750Z,96851.00
2023-04-02T13:40:43.852Z,96851.66
2023-04-02T13:43:17.109Z,96854.94
2023-04-02T13:45:44.247Z,96855.78
2023-04-02T13:48:14.460Z,96866.16
2023-04-02T13:50:41.821Z,96864.50
2023-04-02T13:53:10.645Z,96876.00
2023-04-02T13:55:39.732Z,96876.41
2023-04-02T13:58:06.826Z,96887.31
2023-04-02T14:00:36.001Z,96892.56
2023-04-02T14:03:15.279Z,96892.28
2023-04-02T14:06:08.545Z,96895.75
2023-04-02T14:09:16.740Z,96898.31
2023-04-02T14:11:46.991Z,96897.44
2023-04-02T14:14:20.096Z,96896.63
2023-04-02T14:17:06.924Z,96901.22
2023-04-02T14:19:52.430Z,96912.84
2023-04-02T14:22:31.409Z,96912.19
2023-04-02T14:25:11.310Z,96912.34
2023-04-02T14:28:13.259Z,96910.03
2023-04-02T14:31:00.913Z,96912.28
2023-04-02T14:33:30.933Z,96916.38
2023-04-02T14:36:03.949Z,96918.47
2023-04-02T14:38:38.035Z,96920.72
2023-04-02T14:41:08.882Z,96917.88
2023-04-02T14:43:59.463Z,96924.91
2023-04-02T14:46:26.904Z,96925.16
2023-04-02T14:49:09.094Z,96921.50
2023-04-02T14:51:58.831Z,96931.81
2023-04-02T14:54:36.272Z,96926.97
2023-04-02T14:57:23.172Z,96925.28
2023-04-02T15:00:26.266Z,96936.75
2023-04-02T15:02:57.831Z,96938.66
2023-04-02T15:05:34.662Z,96951.06
2023-04-02T15:08:27.403Z,96946.41
2023-04-02T15:11:19.613Z,96945.91
2023-04-02T15:13:55.717Z,96950.22
2023-04-02T15:16:25.673Z,96962.44
2023-04-02T15:18:53.621Z,96971.41
2023-04-02T15:21:20.523Z,96976.84
2023-04-02T15:24:02.561Z,96975.19
2023-04-02T15:26:47.983Z,96976.13
2023-04-02T15:29:42.874Z,96989.75
2023-04-02T15:32:35.064Z,96988.38
2023-04-02T15:35:24.200Z,96990.00
2023-04-02T15:38:10.103Z,96994.13
2023-04-02T15:40:59.414Z,96994.56
2023-04-02T15:43:48.671Z,96995.56
2023-04-02T15:46:23.173Z,96997.16
2023-04-02T15:49:43.014Z,97003.25
2023-04-02T15:52:11.652Z,97016.97
2023-04-02T15:54:45.011Z,97023.69
2023-04-02T15:57:32.593Z,97018.69
2023-04-02T16:00:18.118Z,97029.69
2023-04-02T16:02:54.146Z,97033.75
2023-04-02T16:05:54.945Z,97033.63
2023-04-02T16:08:46.145Z,97051.22
2023-04-02T16:11:14.259Z,97048.31
2023-04-02T16:13:41.966Z,97053.25
2023-04-02T16:16:15.597Z,97050.50
2023-04-02T16:19:02.838Z,97057.59
2023-04-02T16:21:37.538Z,97066.22
2023-04-02T16:24:13.741Z,97074.19
2023-04-02T16:26:54.466Z,97073.94
2023-04-02T16:29:55.593Z,97085.41
2023-04-02T16:32:32.087Z,97070.97
2023-04-02T16:35:32.553Z,97085.50
2023-04-02T16:38:16.267Z,97099.69
2023-04-02T16:41:07.529Z,97097.31
2023-04-02T16:43:58.365Z,97099.59
2023-04-02T16:46:46.560Z,97112.38
2023-04-02T16:49:17.087Z,97108.97
2023-04-02T16:52:12.989Z,97114.63
2023-04-02T16:54:41.399Z,97120.47
2023-04-02T16:57:32.862Z,97124.09
2023-04-02T17:00:21.491Z,97118.00
2023-04-02T17:02:54.761Z,97124.94
2023-04-02T17:05:43.120Z,97129.44
2023-04-02T17:08:12.749Z,97129.53
2023-04-02T17:10:57.670Z,97130.84
2023-04-02T17:13:33.981Z,97149.13
2023-04-02T17:16:05.218Z,97146.13
2023-04-02T17:18:32.913Z,97154.59
2023-04-02T17:21:04.293Z,97139.94
2023-04-02T17:23:31.501Z,97163.31
2023-04-02T17:26:04.270Z,97165.28
2023-04-02T17:28:37.945Z,97166.63
2023-04-02T17:31:23.294Z,97171.91
2023-04-02T17:33:50.485Z,97174.91
2023-04-02T17:36:17.442Z,97184.78
2023-04-02T17:39:06.968Z,97191.53
2023-04-02T17:41:49.484Z,97191.25
2023-04-02T17:44:56.933Z,97199.13
2023-04-02T17:47:30.117Z,97206.06
2023-04-02T17:50:09.887Z,97206.22
2023-04-02T17:52:43.986Z,97223.50
2023-04-02T17:55:17.454Z,97222.63
2023-04-02T17:58:21.970Z,97236.19
2023-04-02T18:01:04.237Z,97239.41
2023-04-02T18:03:40.975Z,97245.66
2023-04-02T18:06:32.713Z,97259.91
2023-04-02T18:09:09.769Z,97257.72
2023-04-02T18:11:37.129Z,97256.88
2023-04-02T18:14:40.003Z,97270.63
2023-04-02T18:17:38.672Z,97276.09
2023-04-02T18:20:21.626Z,97277.63
2023-04-02T18:23:20.121Z,97280.78
2023-04-02T18:26:04.098Z,97291.84
2023-04-02T18:28:41.008Z,97288.38
2023-04-02T18:31:12.498Z,97292.69
2023-04-02T18:33:51.823Z,97303.53
2023-04-02T18:36:40.555Z,97308.81
2023-04-02T18:39:23.055Z,97301.19
2023-04-02T18:42:31.390Z,97329.47
2023-04-02T18:45:33.277Z,97343.13
2023-04-02T18:48:13.989Z,97339.88
2023-04-02T18:50:46.051Z,97339.88
2023-04-02T18:53:17.447Z,97342.50
2023-04-02T18:56:17.169Z,97355.91
2023-04-02T18:59:15.018Z,97362.53
2023-04-02T19:01:44.646Z,97370.47
2023-04-02T19:04:20.766Z,97379.38
2023-04-02T19:07:02.672Z,97376.72
2023-04-02T19:09:35.194Z,97386.63
2023-04-02T19:12:07.093Z,97385.97
2023-04-02T19:14:34.660Z,97395.50
2023-04-02T19:17:05.509Z,97396.34
2023-04-02T19:19:54.353Z,97402.44
2023-04-02T19:22:38.769Z,97413.59
2023-04-02T19:25:21.321Z,97404.06
2023-04-02T19:27:58.510Z,97403.59
2023-04-02T19:30:51.115Z,97421.94
2023-04-02T19:33:42.818Z,97430.31
2023-04-02T19:37:03.441Z,97433.00
2023-04-02T19:39:36.439Z,97441.03
2023-04-02T19:42:10.528Z,97433.16
2023-04-02T19:44:39.674Z,97446.06
2023-04-02T19:47:08.476Z,97447.81
2023-04-02T19:49:35.662Z,97448.44
2023-04-02T19:52:02.741Z,97453.25
2023-04-02T19:54:30.524Z,97451.72
2023-04-02T19:56:57.550Z,97452.94
2023-04-02T19:59:24.858Z,97446.53
2023-04-02T20:01:52.059Z,97459.63
2023-04-02T20:04:19.238Z,97451.00
2023-04-02T20:06:46.340Z,97453.63
2023-04-02T20:09:13.427Z,97463.16
2023-04-02T20:11:40.432Z,97462.38
2023-04-02T20:14:08.147Z,97461.91
2023-04-02T20:16:39.739Z,97466.38
2023-04-02T20:19:06.886Z,97470.66
2023-04-02T20:21:38.255Z,97475.97
2023-04-02T20:24:06.949Z,97481.22
2023-04-02T20:26:35.117Z,97490.81
2023-04-02T20:29:02.151Z,97483.81
2023-04-02T20:31:30.804Z,97487.78
2023-04-02T20:33:58.377Z,97492.25
2023-04-02T20:36:25.641Z,97492.31
2023-04-02T20:38:52.666Z,97497.41
2023-04-02T20:41:19.844Z,97505.28
2023-04-02T20:43:46.836Z,97500.13
2023-04-02T20:46:14.268Z,97505.47
2023-04-02T20:48:41.322Z,97511.94
2023-04-02T20:51:09.492Z,97510.50
2023-04-02T20:53:37.042Z,97514.41
2023-04-02T20:56:08.722Z,97520.66
2023-04-02T20:58:36.217Z,97524.91
2023-04-02T21:01:23.330Z,97530.31
2023-04-02T21:03:53.757Z,97531.97
2023-04-02T21:06:21.758Z,97531.50
2023-04-02T21:08:49.205Z,97533.56
2023-04-02T21:11:16.522Z,97538.56
2023-04-02T21:13:44.405Z,97541.84
2023-04-02T21:16:19.558Z,97539.56
2023-04-02T21:18:46.836Z,97541.66
2023-04-02T21:21:14.251Z,97539.63
2023-04-02T21:23:42.053Z,97539.16
2023-04-02T21:26:14.850Z,97533.94
2023-04-02T21:28:42.046Z,97538.81
2023-04-02T21:31:14.082Z,97541.31
2023-04-02T21:33:43.458Z,97544.41
2023-04-02T21:36:15.390Z,97551.31
2023-04-02T21:38:48.833Z,97551.63
2023-04-02T21:41:23.709Z,97549.41
2023-04-02T21:43:50.974Z,97549.00
2023-04-02T21:46:19.489Z,97556.69
2023-04-02T21:48:47.780Z,97551.03
2023-04-02T21:51:19.475Z,97559.50
2023-04-02T21:53:46.433Z,97556.34
2023-04-02T21:56:15.882Z,97557.78
2023-04-02T21:58:46.220Z,97563.25
2023-04-02T22:01:23.855Z,97552.31
2023-04-02T22:03:57.144Z,97562.00
2023-04-02T22:06:24.856Z,97569.69
2023-04-02T22:08:53.587Z,97567.81
2023-04-02T22:11:22.522Z,97563.13
2023-04-02T22:13:49.825Z,97577.50
2023-04-02T22:16:22.379Z,97570.03
2023-04-02T22:18:49.904Z,97585.84
2023-04-02T22:21:17.147Z,97582.56
2023-04-02T22:23:44.314Z,97588.72
2023-04-02T22:26:11.971Z,97584.94
2023-04-02T22:28:39.089Z,97581.94
2023-04-02T22:31:16.397Z,97593.41
2023-04-02T22:33:44.250Z,97595.25
2023-04-02T22:36:11.517Z,97596.31
2023-04-02T22:38:38.641Z,97599.84
2023-04-02T22:41:06.919Z,97598.75
2023-04-02T22:43:34.335Z,97596.53
2023-04-02T22:46:01.690Z,97601.09
2023-04-02T22:48:28.717Z,97595.41
2023-04-02T22:50:55.776Z,97592.72
2023-04-02T22:53:22.966Z,97598.28
2023-04-02T22:55:50.163Z,97595.78
2023-04-02T22:58:17.542Z,97603.91
2023-04-02T23:00:44.649Z,97597.88
2023-04-02T23:03:11.794Z,97596.97
2023-04-02T23:05:38.906Z,97604.22
2023-04-02T23:08:06.283Z,97593.88
2023-04-02T23:10:33.347Z,97602.44
2023-04-02T23:13:00.407Z,97598.06
2023-04-02T23:15:27.357Z,97604.19
2023-04-02T23:17:54.499Z,97602.56
2023-04-02T23:20:21.550Z,97594.47
2023-04-02T23:22:48.537Z,97601.69
2023-04-02T23:25:15.950Z,97595.47
2023-04-02T23:27:42.949Z,97593.84
2023-04-02T23:30:10.134Z,97597.69
2023-04-02T23:32:37.220Z,97595.69
2023-04-02T23:35:06.444Z,97590.41
2023-04-02T23:37:33.436Z,97589.75
2023-04-02T23:40:00.417Z,97596.72
2023-04-02T23:42:28.434Z,97598.31
2023-04-02T23:44:55.581Z,97591.22
2023-04-02T23:47:22.760Z,97598.09
2023-04-02T23:49:49.693Z,97598.28
2023-04-02T23:52:18.009Z,97598.72
2023-04-02T23:54:45.161Z,97601.34
2023-04-02T23:57:12.224Z,97592.81
2023-04-02T23:59:40.341Z,97598.09
